sensor_id;sensor_type;location;lat;lon;timestamp;temperature;humidity
67641;SHT31;54434;50.096;20.082;2023-05-10T00:01:27;6.18;67.44
67641;SHT31;54434;50.096;20.082;2023-05-10T00:04:04;6.16;67.41
67641;SHT31;54434;50.096;20.082;2023-05-10T00:06:40;6.15;67.43
67641;SHT31;54434;50.096;20.082;2023-05-10T00:09:16;6.13;67.36
67641;SHT31;54434;50.096;20.082;2023-05-10T00:11:53;6.13;67.32
67641;SHT31;54434;50.096;20.082;2023-05-10T00:14:30;6.12;67.24
67641;SHT31;54434;50.096;20.082;2023-05-10T00:17:06;6.09;67.28
67641;SHT31;54434;50.096;20.082;2023-05-10T00:19:43;6.05;67.45
67641;SHT31;54434;50.096;20.082;2023-05-10T00:22:20;6.00;67.66
67641;SHT31;54434;50.096;20.082;2023-05-10T00:24:56;5.95;67.74
67641;SHT31;54434;50.096;20.082;2023-05-10T00:27:32;5.91;67.77
67641;SHT31;54434;50.096;20.082;2023-05-10T00:30:10;5.86;67.79
67641;SHT31;54434;50.096;20.082;2023-05-10T00:32:47;5.79;68.09
67641;SHT31;54434;50.096;20.082;2023-05-10T00:35:25;5.72;68.50
67641;SHT31;54434;50.096;20.082;2023-05-10T00:38:01;5.66;68.67
67641;SHT31;54434;50.096;20.082;2023-05-10T00:40:38;5.60;68.91
67641;SHT31;54434;50.096;20.082;2023-05-10T00:43:19;5.53;69.11
67641;SHT31;54434;50.096;20.082;2023-05-10T00:45:56;5.48;69.38
67641;SHT31;54434;50.096;20.082;2023-05-10T00:48:33;5.43;69.53
67641;SHT31;54434;50.096;20.082;2023-05-10T00:51:10;5.39;69.60
67641;SHT31;54434;50.096;20.082;2023-05-10T00:53:46;5.38;69.69
67641;SHT31;54434;50.096;20.082;2023-05-10T00:56:23;5.34;69.81
67641;SHT31;54434;50.096;20.082;2023-05-10T00:59:01;5.33;69.78
67641;SHT31;54434;50.096;20.082;2023-05-10T01:01:38;5.31;69.83
67641;SHT31;54434;50.096;20.082;2023-05-10T01:04:15;5.31;69.85
67641;SHT31;54434;50.096;20.082;2023-05-10T01:06:57;5.29;69.87
67641;SHT31;54434;50.096;20.082;2023-05-10T01:09:33;5.29;69.86
67641;SHT31;54434;50.096;20.082;2023-05-10T01:12:10;5.28;69.94
67641;SHT31;54434;50.096;20.082;2023-05-10T01:14:47;5.28;69.97
67641;SHT31;54434;50.096;20.082;2023-05-10T01:17:24;5.28;69.98
67641;SHT31;54434;50.096;20.082;2023-05-10T01:20:01;5.26;70.04
67641;SHT31;54434;50.096;20.082;2023-05-10T01:23:12;5.23;70.16
67641;SHT31;54434;50.096;20.082;2023-05-10T01:26:22;5.21;70.32
67641;SHT31;54434;50.096;20.082;2023-05-10T01:29:40;5.17;70.44
67641;SHT31;54434;50.096;20.082;2023-05-10T01:32:59;5.15;70.62
67641;SHT31;54434;50.096;20.082;2023-05-10T01:35:50;5.14;70.61
67641;SHT31;54434;50.096;20.082;2023-05-10T01:38:41;5.11;70.76
67641;SHT31;54434;50.096;20.082;2023-05-10T01:41:36;5.09;70.90
67641;SHT31;54434;50.096;20.082;2023-05-10T01:44:24;5.06;70.94
67641;SHT31;54434;50.096;20.082;2023-05-10T01:47:09;5.02;71.09
67641;SHT31;54434;50.096;20.082;2023-05-10T01:49:52;5.00;71.17
67641;SHT31;54434;50.096;20.082;2023-05-10T01:52:35;4.98;71.27
67641;SHT31;54434;50.096;20.082;2023-05-10T01:55:18;4.95;71.37
67641;SHT31;54434;50.096;20.082;2023-05-10T01:58:07;4.92;71.42
67641;SHT31;54434;50.096;20.082;2023-05-10T02:00:47;4.91;71.37
67641;SHT31;54434;50.096;20.082;2023-05-10T02:03:27;4.87;71.52
67641;SHT31;54434;50.096;20.082;2023-05-10T02:06:07;4.85;71.63
67641;SHT31;54434;50.096;20.082;2023-05-10T02:08:48;4.82;71.89
67641;SHT31;54434;50.096;20.082;2023-05-10T02:11:26;4.80;71.99
67641;SHT31;54434;50.096;20.082;2023-05-10T02:14:04;4.77;72.10
67641;SHT31;54434;50.096;20.082;2023-05-10T02:16:43;4.76;72.10
67641;SHT31;54434;50.096;20.082;2023-05-10T02:19:21;4.74;72.15
67641;SHT31;54434;50.096;20.082;2023-05-10T02:22:00;4.74;72.24
67641;SHT31;54434;50.096;20.082;2023-05-10T02:24:40;4.71;72.25
67641;SHT31;54434;50.096;20.082;2023-05-10T02:27:18;4.66;72.34
67641;SHT31;54434;50.096;20.082;2023-05-10T02:29:56;4.63;72.30
67641;SHT31;54434;50.096;20.082;2023-05-10T02:32:34;4.60;72.30
67641;SHT31;54434;50.096;20.082;2023-05-10T02:35:12;4.55;72.46
67641;SHT31;54434;50.096;20.082;2023-05-10T02:37:50;4.50;72.51
67641;SHT31;54434;50.096;20.082;2023-05-10T02:40:27;4.45;72.86
67641;SHT31;54434;50.096;20.082;2023-05-10T02:43:10;4.43;73.02
67641;SHT31;54434;50.096;20.082;2023-05-10T02:45:57;4.42;73.17
67641;SHT31;54434;50.096;20.082;2023-05-10T02:48:34;4.40;73.30
67641;SHT31;54434;50.096;20.082;2023-05-10T02:51:11;4.39;73.34
67641;SHT31;54434;50.096;20.082;2023-05-10T02:53:51;4.39;73.36
67641;SHT31;54434;50.096;20.082;2023-05-10T02:56:35;4.40;73.42
67641;SHT31;54434;50.096;20.082;2023-05-10T02:59:19;4.41;73.33
67641;SHT31;54434;50.096;20.082;2023-05-10T03:01:56;4.42;73.36
67641;SHT31;54434;50.096;20.082;2023-05-10T03:04:33;4.45;73.41
67641;SHT31;54434;50.096;20.082;2023-05-10T03:07:11;4.48;73.31
67641;SHT31;54434;50.096;20.082;2023-05-10T03:09:51;4.50;73.37
67641;SHT31;54434;50.096;20.082;2023-05-10T03:12:37;4.53;73.37
67641;SHT31;54434;50.096;20.082;2023-05-10T03:15:45;4.55;73.32
67641;SHT31;54434;50.096;20.082;2023-05-10T03:18:36;4.60;73.25
67641;SHT31;54434;50.096;20.082;2023-05-10T03:21:18;4.65;73.19
67641;SHT31;54434;50.096;20.082;2023-05-10T03:24:02;4.70;73.04
67641;SHT31;54434;50.096;20.082;2023-05-10T03:26:44;4.75;72.90
67641;SHT31;54434;50.096;20.082;2023-05-10T03:29:22;4.79;72.93
67641;SHT31;54434;50.096;20.082;2023-05-10T03:32:01;4.83;72.83
67641;SHT31;54434;50.096;20.082;2023-05-10T03:34:42;4.88;72.74
67641;SHT31;54434;50.096;20.082;2023-05-10T03:37:18;4.94;72.70
67641;SHT31;54434;50.096;20.082;2023-05-10T03:39:55;5.17;72.62
67641;SHT31;54434;50.096;20.082;2023-05-10T03:42:33;5.74;71.99
67641;SHT31;54434;50.096;20.082;2023-05-10T03:45:11;6.44;70.62
67641;SHT31;54434;50.096;20.082;2023-05-10T03:47:47;7.23;69.22
67641;SHT31;54434;50.096;20.082;2023-05-10T03:50:24;8.00;67.56
67641;SHT31;54434;50.096;20.082;2023-05-10T03:53:01;8.75;65.72
67641;SHT31;54434;50.096;20.082;2023-05-10T03:55:37;9.54;63.82
67641;SHT31;54434;50.096;20.082;2023-05-10T03:58:13;10.23;62.16
67641;SHT31;54434;50.096;20.082;2023-05-10T04:00:50;10.87;60.53
67641;SHT31;54434;50.096;20.082;2023-05-10T04:03:27;11.51;58.92
67641;SHT31;54434;50.096;20.082;2023-05-10T04:06:05;12.11;57.04
67641;SHT31;54434;50.096;20.082;2023-05-10T04:08:43;12.61;55.73
67641;SHT31;54434;50.096;20.082;2023-05-10T04:11:19;13.06;53.62
67641;SHT31;54434;50.096;20.082;2023-05-10T04:13:56;13.47;53.18
67641;SHT31;54434;50.096;20.082;2023-05-10T04:16:32;13.88;51.80
67641;SHT31;54434;50.096;20.082;2023-05-10T04:19:09;14.30;50.89
67641;SHT31;54434;50.096;20.082;2023-05-10T04:21:45;14.56;49.96
67641;SHT31;54434;50.096;20.082;2023-05-10T04:24:22;14.94;49.66
67641;SHT31;54434;50.096;20.082;2023-05-10T04:26:58;15.23;48.27
67641;SHT31;54434;50.096;20.082;2023-05-10T04:29:34;15.56;47.77
67641;SHT31;54434;50.096;20.082;2023-05-10T04:32:11;15.85;47.27
67641;SHT31;54434;50.096;20.082;2023-05-10T04:34:48;16.12;45.99
67641;SHT31;54434;50.096;20.082;2023-05-10T04:37:25;16.33;45.38
67641;SHT31;54434;50.096;20.082;2023-05-10T04:40:01;16.52;45.07
67641;SHT31;54434;50.096;20.082;2023-05-10T04:42:41;16.76;44.33
67641;SHT31;54434;50.096;20.082;2023-05-10T04:45:23;17.03;43.86
67641;SHT31;54434;50.096;20.082;2023-05-10T04:47:59;17.19;43.66
67641;SHT31;54434;50.096;20.082;2023-05-10T04:50:36;17.38;43.38
67641;SHT31;54434;50.096;20.082;2023-05-10T04:53:13;17.49;42.50
67641;SHT31;54434;50.096;20.082;2023-05-10T04:55:50;17.55;42.61
67641;SHT31;54434;50.096;20.082;2023-05-10T04:58:27;17.59;41.76
67641;SHT31;54434;50.096;20.082;2023-05-10T05:01:07;17.77;42.12
67641;SHT31;54434;50.096;20.082;2023-05-10T05:03:44;17.94;42.00
67641;SHT31;54434;50.096;20.082;2023-05-10T05:06:20;18.08;41.53
67641;SHT31;54434;50.096;20.082;2023-05-10T05:08:59;18.28;40.70
67641;SHT31;54434;50.096;20.082;2023-05-10T05:11:35;18.34;40.78
67641;SHT31;54434;50.096;20.082;2023-05-10T05:14:13;18.27;40.24
67641;SHT31;54434;50.096;20.082;2023-05-10T05:16:49;18.17;40.19
67641;SHT31;54434;50.096;20.082;2023-05-10T05:19:27;18.26;40.59
67641;SHT31;54434;50.096;20.082;2023-05-10T05:22:06;18.47;40.28
67641;SHT31;54434;50.096;20.082;2023-05-10T05:24:42;18.74;40.21
67641;SHT31;54434;50.096;20.082;2023-05-10T05:27:19;19.06;39.83
67641;SHT31;54434;50.096;20.082;2023-05-10T05:29:58;19.27;39.35
67641;SHT31;54434;50.096;20.082;2023-05-10T05:32:36;19.45;38.97
67641;SHT31;54434;50.096;20.082;2023-05-10T05:35:13;19.50;39.48
67641;SHT31;54434;50.096;20.082;2023-05-10T05:37:51;19.60;38.97
67641;SHT31;54434;50.096;20.082;2023-05-10T05:40:28;19.81;38.60
67641;SHT31;54434;50.096;20.082;2023-05-10T05:43:05;19.95;37.77
67641;SHT31;54434;50.096;20.082;2023-05-10T05:45:45;19.81;38.26
67641;SHT31;54434;50.096;20.082;2023-05-10T05:48:24;19.95;37.44
67641;SHT31;54434;50.096;20.082;2023-05-10T05:51:02;19.99;37.47
67641;SHT31;54434;50.096;20.082;2023-05-10T05:53:40;19.98;37.07
67641;SHT31;54434;50.096;20.082;2023-05-10T05:56:19;20.10;36.77
67641;SHT31;54434;50.096;20.082;2023-05-10T05:58:57;20.11;36.79
67641;SHT31;54434;50.096;20.082;2023-05-10T06:01:35;20.27;36.93
67641;SHT31;54434;50.096;20.082;2023-05-10T06:04:12;20.50;37.04
67641;SHT31;54434;50.096;20.082;2023-05-10T06:06:51;20.77;36.39
67641;SHT31;54434;50.096;20.082;2023-05-10T06:09:28;21.01;35.95
67641;SHT31;54434;50.096;20.082;2023-05-10T06:12:07;21.23;35.46
67641;SHT31;54434;50.096;20.082;2023-05-10T06:14:44;21.38;35.23
67641;SHT31;54434;50.096;20.082;2023-05-10T06:17:21;21.56;35.04
67641;SHT31;54434;50.096;20.082;2023-05-10T06:19:59;21.71;35.13
67641;SHT31;54434;50.096;20.082;2023-05-10T06:22:37;21.97;34.38
67641;SHT31;54434;50.096;20.082;2023-05-10T06:25:14;22.13;34.22
67641;SHT31;54434;50.096;20.082;2023-05-10T06:27:51;22.25;34.40
67641;SHT31;54434;50.096;20.082;2023-05-10T06:30:29;22.30;33.91
67641;SHT31;54434;50.096;20.082;2023-05-10T06:33:06;22.42;33.84
67641;SHT31;54434;50.096;20.082;2023-05-10T06:35:43;22.59;34.51
67641;SHT31;54434;50.096;20.082;2023-05-10T06:38:20;22.79;33.52
67641;SHT31;54434;50.096;20.082;2023-05-10T06:40:56;22.73;33.69
67641;SHT31;54434;50.096;20.082;2023-05-10T06:43:33;22.62;33.24
67641;SHT31;54434;50.096;20.082;2023-05-10T06:46:11;22.70;33.48
67641;SHT31;54434;50.096;20.082;2023-05-10T06:48:48;22.82;34.04
67641;SHT31;54434;50.096;20.082;2023-05-10T06:51:25;22.95;33.42
67641;SHT31;54434;50.096;20.082;2023-05-10T06:54:01;22.94;33.64
67641;SHT31;54434;50.096;20.082;2023-05-10T06:56:38;22.99;33.06
67641;SHT31;54434;50.096;20.082;2023-05-10T06:59:14;22.91;33.29
67641;SHT31;54434;50.096;20.082;2023-05-10T07:01:53;23.05;33.47
67641;SHT31;54434;50.096;20.082;2023-05-10T07:04:30;23.01;33.10
67641;SHT31;54434;50.096;20.082;2023-05-10T07:07:07;22.98;33.52
67641;SHT31;54434;50.096;20.082;2023-05-10T07:09:43;22.95;33.21
67641;SHT31;54434;50.096;20.082;2023-05-10T07:12:21;22.84;33.40
67641;SHT31;54434;50.096;20.082;2023-05-10T07:14:58;22.79;33.69
67641;SHT31;54434;50.096;20.082;2023-05-10T07:17:34;22.63;33.93
67641;SHT31;54434;50.096;20.082;2023-05-10T07:20:15;22.59;34.01
67641;SHT31;54434;50.096;20.082;2023-05-10T07:22:52;22.77;34.80
67641;SHT31;54434;50.096;20.082;2023-05-10T07:25:29;23.10;34.31
67641;SHT31;54434;50.096;20.082;2023-05-10T07:28:05;23.21;33.35
67641;SHT31;54434;50.096;20.082;2023-05-10T07:30:45;23.13;33.04
67641;SHT31;54434;50.096;20.082;2023-05-10T07:33:22;22.89;33.46
67641;SHT31;54434;50.096;20.082;2023-05-10T07:35:59;22.97;33.43
67641;SHT31;54434;50.096;20.082;2023-05-10T07:38:35;22.76;33.29
67641;SHT31;54434;50.096;20.082;2023-05-10T07:41:12;22.75;34.33
67641;SHT31;54434;50.096;20.082;2023-05-10T07:45:52;23.09;37.45
67641;SHT31;54434;50.096;20.082;2023-05-10T07:48:31;23.48;37.69
67641;SHT31;54434;50.096;20.082;2023-05-10T07:51:08;23.80;36.64
67641;SHT31;54434;50.096;20.082;2023-05-10T07:53:45;24.01;36.11
67641;SHT31;54434;50.096;20.082;2023-05-10T07:56:24;24.20;35.58
67641;SHT31;54434;50.096;20.082;2023-05-10T07:59:05;24.30;34.34
67641;SHT31;54434;50.096;20.082;2023-05-10T08:01:44;24.18;32.85
67641;SHT31;54434;50.096;20.082;2023-05-10T08:04:21;23.88;32.66
67641;SHT31;54434;50.096;20.082;2023-05-10T08:06:57;23.76;33.16
67641;SHT31;54434;50.096;20.082;2023-05-10T08:09:34;23.78;33.02
67641;SHT31;54434;50.096;20.082;2023-05-10T08:12:10;23.67;32.36
67641;SHT31;54434;50.096;20.082;2023-05-10T08:14:47;23.55;32.82
67641;SHT31;54434;50.096;20.082;2023-05-10T08:17:23;23.59;33.55
67641;SHT31;54434;50.096;20.082;2023-05-10T08:20:00;23.63;33.11
67641;SHT31;54434;50.096;20.082;2023-05-10T08:22:39;23.38;32.33
67641;SHT31;54434;50.096;20.082;2023-05-10T08:25:15;23.12;31.66
67641;SHT31;54434;50.096;20.082;2023-05-10T08:27:52;22.99;32.44
67641;SHT31;54434;50.096;20.082;2023-05-10T08:30:28;22.99;32.64
67641;SHT31;54434;50.096;20.082;2023-05-10T08:33:05;22.97;32.64
67641;SHT31;54434;50.096;20.082;2023-05-10T08:35:41;22.92;32.50
67641;SHT31;54434;50.096;20.082;2023-05-10T08:38:19;22.77;31.82
67641;SHT31;54434;50.096;20.082;2023-05-10T08:40:56;22.61;32.27
67641;SHT31;54434;50.096;20.082;2023-05-10T08:43:34;22.48;32.19
67641;SHT31;54434;50.096;20.082;2023-05-10T08:46:13;22.46;32.42
67641;SHT31;54434;50.096;20.082;2023-05-10T08:48:53;22.49;32.36
67641;SHT31;54434;50.096;20.082;2023-05-10T08:51:31;22.46;32.13
67641;SHT31;54434;50.096;20.082;2023-05-10T08:54:14;22.38;31.68
67641;SHT31;54434;50.096;20.082;2023-05-10T08:56:51;22.29;31.79
67641;SHT31;54434;50.096;20.082;2023-05-10T08:59:28;22.26;32.26
67641;SHT31;54434;50.096;20.082;2023-05-10T09:02:05;22.06;31.34
67641;SHT31;54434;50.096;20.082;2023-05-10T09:04:46;21.89;32.09
67641;SHT31;54434;50.096;20.082;2023-05-10T09:07:24;21.74;32.45
67641;SHT31;54434;50.096;20.082;2023-05-10T09:10:01;21.66;32.83
67641;SHT31;54434;50.096;20.082;2023-05-10T09:12:42;21.49;32.60
67641;SHT31;54434;50.096;20.082;2023-05-10T09:15:21;21.39;32.76
67641;SHT31;54434;50.096;20.082;2023-05-10T09:17:58;21.30;32.67
67641;SHT31;54434;50.096;20.082;2023-05-10T09:20:35;21.18;32.75
67641;SHT31;54434;50.096;20.082;2023-05-10T09:23:12;21.11;32.96
67641;SHT31;54434;50.096;20.082;2023-05-10T09:25:49;21.02;32.97
67641;SHT31;54434;50.096;20.082;2023-05-10T09:28:51;20.99;33.45
67641;SHT31;54434;50.096;20.082;2023-05-10T09:34:32;20.76;32.72
67641;SHT31;54434;50.096;20.082;2023-05-10T09:37:11;20.64;32.65
67641;SHT31;54434;50.096;20.082;2023-05-10T09:39:48;20.55;33.27
67641;SHT31;54434;50.096;20.082;2023-05-10T09:42:30;20.50;33.44
67641;SHT31;54434;50.096;20.082;2023-05-10T09:45:09;20.49;33.36
67641;SHT31;54434;50.096;20.082;2023-05-10T09:47:46;20.47;33.29
67641;SHT31;54434;50.096;20.082;2023-05-10T09:50:24;20.40;33.17
67641;SHT31;54434;50.096;20.082;2023-05-10T09:53:02;20.36;33.44
67641;SHT31;54434;50.096;20.082;2023-05-10T09:55:43;20.34;33.56
67641;SHT31;54434;50.096;20.082;2023-05-10T09:58:22;20.30;33.81
67641;SHT31;54434;50.096;20.082;2023-05-10T10:00:59;20.25;33.47
67641;SHT31;54434;50.096;20.082;2023-05-10T10:03:40;20.18;33.23
67641;SHT31;54434;50.096;20.082;2023-05-10T10:06:21;20.11;33.53
67641;SHT31;54434;50.096;20.082;2023-05-10T10:09:01;20.07;33.22
67641;SHT31;54434;50.096;20.082;2023-05-10T10:11:39;19.98;33.61
67641;SHT31;54434;50.096;20.082;2023-05-10T10:14:17;19.96;33.57
67641;SHT31;54434;50.096;20.082;2023-05-10T10:16:55;19.98;34.27
67641;SHT31;54434;50.096;20.082;2023-05-10T10:19:36;19.98;33.53
67641;SHT31;54434;50.096;20.082;2023-05-10T10:22:14;19.89;32.94
67641;SHT31;54434;50.096;20.082;2023-05-10T10:24:51;19.88;33.59
67641;SHT31;54434;50.096;20.082;2023-05-10T10:27:33;19.89;33.95
67641;SHT31;54434;50.096;20.082;2023-05-10T10:30:25;19.91;34.54
67641;SHT31;54434;50.096;20.082;2023-05-10T10:33:36;19.92;34.73
67641;SHT31;54434;50.096;20.082;2023-05-10T10:36:44;19.90;34.53
67641;SHT31;54434;50.096;20.082;2023-05-10T10:39:21;19.84;34.11
67641;SHT31;54434;50.096;20.082;2023-05-10T10:41:59;19.80;34.04
67641;SHT31;54434;50.096;20.082;2023-05-10T10:44:40;19.76;34.01
67641;SHT31;54434;50.096;20.082;2023-05-10T10:47:27;19.74;34.42
67641;SHT31;54434;50.096;20.082;2023-05-10T10:50:07;19.73;34.17
67641;SHT31;54434;50.096;20.082;2023-05-10T10:52:46;19.72;34.12
67641;SHT31;54434;50.096;20.082;2023-05-10T10:55:25;19.68;34.17
67641;SHT31;54434;50.096;20.082;2023-05-10T10:58:02;19.66;34.11
67641;SHT31;54434;50.096;20.082;2023-05-10T11:00:41;19.64;33.55
67641;SHT31;54434;50.096;20.082;2023-05-10T11:03:17;19.64;33.89
67641;SHT31;54434;50.096;20.082;2023-05-10T11:05:59;19.65;33.94
67641;SHT31;54434;50.096;20.082;2023-05-10T11:08:41;19.63;34.01
67641;SHT31;54434;50.096;20.082;2023-05-10T11:11:19;19.63;34.15
67641;SHT31;54434;50.096;20.082;2023-05-10T11:13:57;19.59;33.93
67641;SHT31;54434;50.096;20.082;2023-05-10T11:16:45;19.61;34.31
67641;SHT31;54434;50.096;20.082;2023-05-10T11:19:23;19.62;34.21
67641;SHT31;54434;50.096;20.082;2023-05-10T11:22:15;19.63;34.47
67641;SHT31;54434;50.096;20.082;2023-05-10T11:24:58;19.64;33.92
67641;SHT31;54434;50.096;20.082;2023-05-10T11:27:38;19.65;33.77
67641;SHT31;54434;50.096;20.082;2023-05-10T11:30:15;19.63;33.45
67641;SHT31;54434;50.096;20.082;2023-05-10T11:32:52;19.63;33.87
67641;SHT31;54434;50.096;20.082;2023-05-10T11:35:29;19.63;34.00
67641;SHT31;54434;50.096;20.082;2023-05-10T11:38:13;19.63;33.77
67641;SHT31;54434;50.096;20.082;2023-05-10T11:40:51;19.62;33.39
67641;SHT31;54434;50.096;20.082;2023-05-10T11:43:28;19.57;33.40
67641;SHT31;54434;50.096;20.082;2023-05-10T11:46:05;19.56;33.70
67641;SHT31;54434;50.096;20.082;2023-05-10T11:48:44;19.56;33.91
67641;SHT31;54434;50.096;20.082;2023-05-10T11:51:25;19.55;33.64
67641;SHT31;54434;50.096;20.082;2023-05-10T11:54:05;19.54;34.07
67641;SHT31;54434;50.096;20.082;2023-05-10T11:56:43;19.50;33.92
67641;SHT31;54434;50.096;20.082;2023-05-10T11:59:19;19.41;33.83
67641;SHT31;54434;50.096;20.082;2023-05-10T12:01:58;19.39;33.76
67641;SHT31;54434;50.096;20.082;2023-05-10T12:04:35;19.38;34.00
67641;SHT31;54434;50.096;20.082;2023-05-10T12:07:13;19.38;33.84
67641;SHT31;54434;50.096;20.082;2023-05-10T12:10:04;19.36;33.30
67641;SHT31;54434;50.096;20.082;2023-05-10T12:12:48;19.35;33.37
67641;SHT31;54434;50.096;20.082;2023-05-10T12:15:26;19.36;33.80
67641;SHT31;54434;50.096;20.082;2023-05-10T12:18:04;19.37;33.67
67641;SHT31;54434;50.096;20.082;2023-05-10T12:20:43;19.35;33.74
67641;SHT31;54434;50.096;20.082;2023-05-10T12:23:20;19.34;33.89
67641;SHT31;54434;50.096;20.082;2023-05-10T12:26:03;19.35;34.37
67641;SHT31;54434;50.096;20.082;2023-05-10T12:28:43;19.39;34.67
67641;SHT31;54434;50.096;20.082;2023-05-10T12:31:19;19.40;34.45
67641;SHT31;54434;50.096;20.082;2023-05-10T12:33:56;19.41;34.25
67641;SHT31;54434;50.096;20.082;2023-05-10T12:36:33;19.39;34.35
67641;SHT31;54434;50.096;20.082;2023-05-10T12:39:15;19.39;34.11
67641;SHT31;54434;50.096;20.082;2023-05-10T12:41:51;19.37;33.64
67641;SHT31;54434;50.096;20.082;2023-05-10T12:44:28;19.33;33.80
67641;SHT31;54434;50.096;20.082;2023-05-10T12:47:05;19.35;34.49
67641;SHT31;54434;50.096;20.082;2023-05-10T12:49:43;19.35;33.98
67641;SHT31;54434;50.096;20.082;2023-05-10T12:52:19;19.36;34.01
67641;SHT31;54434;50.096;20.082;2023-05-10T12:54:56;19.38;34.27
67641;SHT31;54434;50.096;20.082;2023-05-10T12:57:35;19.40;34.26
67641;SHT31;54434;50.096;20.082;2023-05-10T13:00:13;19.43;34.24
67641;SHT31;54434;50.096;20.082;2023-05-10T13:02:51;19.43;33.06
67641;SHT31;54434;50.096;20.082;2023-05-10T13:05:29;19.40;33.38
67641;SHT31;54434;50.096;20.082;2023-05-10T13:08:06;19.42;33.53
67641;SHT31;54434;50.096;20.082;2023-05-10T13:10:42;19.43;33.37
67641;SHT31;54434;50.096;20.082;2023-05-10T13:13:19;19.44;33.54
67641;SHT31;54434;50.096;20.082;2023-05-10T13:15:56;19.41;33.29
67641;SHT31;54434;50.096;20.082;2023-05-10T13:18:33;19.42;33.97
67641;SHT31;54434;50.096;20.082;2023-05-10T13:21:10;19.44;33.96
67641;SHT31;54434;50.096;20.082;2023-05-10T13:23:47;19.43;33.90
67641;SHT31;54434;50.096;20.082;2023-05-10T13:26:24;19.43;33.58
67641;SHT31;54434;50.096;20.082;2023-05-10T13:29:01;19.40;33.57
67641;SHT31;54434;50.096;20.082;2023-05-10T13:31:38;19.39;33.52
67641;SHT31;54434;50.096;20.082;2023-05-10T13:34:15;19.39;33.97
67641;SHT31;54434;50.096;20.082;2023-05-10T13:36:53;19.39;34.12
67641;SHT31;54434;50.096;20.082;2023-05-10T13:39:30;19.40;33.79
67641;SHT31;54434;50.096;20.082;2023-05-10T13:42:09;19.38;33.63
67641;SHT31;54434;50.096;20.082;2023-05-10T13:44:46;19.37;33.45
67641;SHT31;54434;50.096;20.082;2023-05-10T13:47:23;19.37;33.71
67641;SHT31;54434;50.096;20.082;2023-05-10T13:49:59;19.35;33.30
67641;SHT31;54434;50.096;20.082;2023-05-10T13:52:36;19.33;33.66
67641;SHT31;54434;50.096;20.082;2023-05-10T13:55:13;19.35;33.82
67641;SHT31;54434;50.096;20.082;2023-05-10T13:57:50;19.34;33.70
67641;SHT31;54434;50.096;20.082;2023-05-10T14:00:27;19.35;34.17
67641;SHT31;54434;50.096;20.082;2023-05-10T14:03:04;19.37;34.32
67641;SHT31;54434;50.096;20.082;2023-05-10T14:05:43;19.39;33.99
67641;SHT31;54434;50.096;20.082;2023-05-10T14:08:20;19.40;34.20
67641;SHT31;54434;50.096;20.082;2023-05-10T14:10:58;19.40;34.03
67641;SHT31;54434;50.096;20.082;2023-05-10T14:13:36;19.39;33.90
67641;SHT31;54434;50.096;20.082;2023-05-10T14:16:12;19.38;33.88
67641;SHT31;54434;50.096;20.082;2023-05-10T14:18:49;19.38;34.02
67641;SHT31;54434;50.096;20.082;2023-05-10T14:21:29;19.38;33.91
67641;SHT31;54434;50.096;20.082;2023-05-10T14:24:06;19.37;34.19
67641;SHT31;54434;50.096;20.082;2023-05-10T14:26:43;19.38;34.75
67641;SHT31;54434;50.096;20.082;2023-05-10T14:29:20;19.40;34.39
67641;SHT31;54434;50.096;20.082;2023-05-10T14:31:57;19.39;34.24
67641;SHT31;54434;50.096;20.082;2023-05-10T14:34:34;19.38;33.97
67641;SHT31;54434;50.096;20.082;2023-05-10T14:37:13;19.39;34.20
67641;SHT31;54434;50.096;20.082;2023-05-10T14:39:51;19.39;34.09
67641;SHT31;54434;50.096;20.082;2023-05-10T14:42:27;19.39;34.30
67641;SHT31;54434;50.096;20.082;2023-05-10T14:45:05;19.38;34.17
67641;SHT31;54434;50.096;20.082;2023-05-10T14:47:43;19.38;33.93
67641;SHT31;54434;50.096;20.082;2023-05-10T14:50:20;19.36;34.09
67641;SHT31;54434;50.096;20.082;2023-05-10T14:53:09;19.35;34.02
67641;SHT31;54434;50.096;20.082;2023-05-10T14:55:46;19.35;34.19
67641;SHT31;54434;50.096;20.082;2023-05-10T14:58:22;19.34;34.16
67641;SHT31;54434;50.096;20.082;2023-05-10T15:01:00;19.35;34.41
67641;SHT31;54434;50.096;20.082;2023-05-10T15:03:37;19.36;34.43
67641;SHT31;54434;50.096;20.082;2023-05-10T15:06:15;19.38;34.35
67641;SHT31;54434;50.096;20.082;2023-05-10T15:08:55;19.36;34.11
67641;SHT31;54434;50.096;20.082;2023-05-10T15:11:33;19.36;34.21
67641;SHT31;54434;50.096;20.082;2023-05-10T15:14:10;19.37;34.25
67641;SHT31;54434;50.096;20.082;2023-05-10T15:16:47;19.37;34.24
67641;SHT31;54434;50.096;20.082;2023-05-10T15:19:24;19.36;34.21
67641;SHT31;54434;50.096;20.082;2023-05-10T15:22:01;19.35;34.12
67641;SHT31;54434;50.096;20.082;2023-05-10T15:24:38;19.32;33.97
67641;SHT31;54434;50.096;20.082;2023-05-10T15:27:14;19.26;33.95
67641;SHT31;54434;50.096;20.082;2023-05-10T15:29:51;19.21;34.10
67641;SHT31;54434;50.096;20.082;2023-05-10T15:32:28;19.18;34.10
67641;SHT31;54434;50.096;20.082;2023-05-10T15:35:07;19.11;34.14
67641;SHT31;54434;50.096;20.082;2023-05-10T15:37:44;19.07;34.77
67641;SHT31;54434;50.096;20.082;2023-05-10T15:40:22;19.05;35.12
67641;SHT31;54434;50.096;20.082;2023-05-10T15:42:58;19.06;35.32
67641;SHT31;54434;50.096;20.082;2023-05-10T15:45:36;18.99;34.71
67641;SHT31;54434;50.096;20.082;2023-05-10T15:48:13;18.95;35.02
67641;SHT31;54434;50.096;20.082;2023-05-10T15:50:50;18.94;34.85
67641;SHT31;54434;50.096;20.082;2023-05-10T15:53:29;18.93;35.05
67641;SHT31;54434;50.096;20.082;2023-05-10T15:56:06;18.84;34.52
67641;SHT31;54434;50.096;20.082;2023-05-10T15:58:43;18.81;34.81
67641;SHT31;54434;50.096;20.082;2023-05-10T16:01:20;18.78;34.88
67641;SHT31;54434;50.096;20.082;2023-05-10T16:03:57;18.72;34.53
67641;SHT31;54434;50.096;20.082;2023-05-10T16:06:33;18.68;34.47
67641;SHT31;54434;50.096;20.082;2023-05-10T16:09:10;18.63;34.56
67641;SHT31;54434;50.096;20.082;2023-05-10T16:11:47;18.62;35.20
67641;SHT31;54434;50.096;20.082;2023-05-10T16:14:24;18.58;35.13
67641;SHT31;54434;50.096;20.082;2023-05-10T16:17:01;18.55;35.46
67641;SHT31;54434;50.096;20.082;2023-05-10T16:19:38;18.51;35.57
67641;SHT31;54434;50.096;20.082;2023-05-10T16:22:15;18.47;35.41
67641;SHT31;54434;50.096;20.082;2023-05-10T16:24:53;18.42;35.01
67641;SHT31;54434;50.096;20.082;2023-05-10T16:27:30;18.35;34.97
67641;SHT31;54434;50.096;20.082;2023-05-10T16:30:09;18.30;35.11
67641;SHT31;54434;50.096;20.082;2023-05-10T16:32:46;18.26;35.14
67641;SHT31;54434;50.096;20.082;2023-05-10T16:35:23;18.20;35.46
67641;SHT31;54434;50.096;20.082;2023-05-10T16:38:00;18.17;35.55